Time;durP1;ratioP1;P1;durP2;ratioP2;P2;SDS_P1;SDS_P2;PMS_P1;PMS_P2;Temp;Humidity;BMP_temperature;BMP_pressure;BME280_temperature;BME280_humidity;BME280_pressure;Samples;Min_cycle;Max_cycle;Signal;HPM_P1;HPM_P2
2021/11/02 00:01:17;;;;;;;6.53;1.85;;;6.60;98.00;;;;;;6221268;23;20388;-77
2021/11/02 00:03:43;;;;;;;4.68;1.70;;;6.60;98.00;;;;;;6221885;23;20004;-77
2021/11/02 00:06:09;;;;;;;5.82;1.88;;;6.70;98.00;;;;;;6221501;23;20020;-78
2021/11/02 00:08:35;;;;;;;5.32;1.52;;;6.60;98.00;;;;;;6248573;23;20024;-78
2021/11/02 00:11:01;;;;;;;5.60;1.60;;;6.60;98.00;;;;;;6246507;23;20028;-78
2021/11/02 00:13:29;;;;;;;3.17;1.33;;;6.50;98.00;;;;;;6220763;23;20007;-78
2021/11/02 00:15:58;;;;;;;6.43;1.60;;;6.50;98.00;;;;;;6248159;23;20011;-76
2021/11/02 00:18:25;;;;;;;4.05;1.50;;;6.60;98.00;;;;;;6221972;23;20087;-77
2021/11/02 00:20:58;;;;;;;3.22;1.30;;;6.60;98.00;;;;;;6221288;23;20057;-78
2021/11/02 00:23:24;;;;;;;4.20;1.60;;;6.50;98.00;;;;;;6248092;23;20011;-77
2021/11/02 00:25:50;;;;;;;4.88;1.38;;;6.50;98.00;;;;;;6219444;23;20008;-78
2021/11/02 00:28:15;;;;;;;4.30;1.30;;;6.40;98.00;;;;;;6221727;23;20000;-77
2021/11/02 00:30:44;;;;;;;6.07;1.65;;;6.40;98.00;;;;;;6247021;23;20132;-77
2021/11/02 00:33:09;;;;;;;4.47;1.63;;;6.30;98.00;;;;;;6247792;23;20098;-77
2021/11/02 00:35:36;;;;;;;5.90;1.50;;;6.30;98.00;;;;;;6221537;23;20327;-77
2021/11/02 00:38:01;;;;;;;5.57;1.70;;;6.30;98.00;;;;;;6248141;23;20305;-78
2021/11/02 00:40:28;;;;;;;3.60;1.73;;;6.40;98.00;;;;;;6246493;23;20020;-78
2021/11/02 00:42:56;;;;;;;4.30;1.67;;;6.50;98.00;;;;;;6246976;23;19996;-78
2021/11/02 00:45:31;;;;;;;4.53;1.60;;;6.50;98.00;;;;;;6247704;23;20258;-78
2021/11/02 00:47:59;;;;;;;4.60;1.80;;;6.50;98.00;;;;;;6222314;23;20008;-78
2021/11/02 00:50:25;;;;;;;4.72;2.20;;;6.40;98.00;;;;;;6248174;23;20024;-78
2021/11/02 00:52:51;;;;;;;7.65;2.75;;;6.30;98.00;;;;;;6221868;23;20032;-78
2021/11/02 00:55:17;;;;;;;8.35;3.05;;;6.30;98.00;;;;;;6219833;23;20007;-77
2021/11/02 00:57:45;;;;;;;6.13;3.25;;;6.20;98.00;;;;;;6247726;23;20027;-77
2021/11/02 01:00:13;;;;;;;5.35;2.63;;;6.20;98.00;;;;;;6248409;23;20000;-79
2021/11/02 01:02:38;;;;;;;7.35;3.03;;;6.20;98.00;;;;;;6248145;23;20004;-79
2021/11/02 01:05:04;;;;;;;6.18;2.88;;;6.20;98.00;;;;;;6220706;23;20015;-77
2021/11/02 01:07:30;;;;;;;8.60;2.95;;;6.30;98.00;;;;;;6246028;23;20004;-77
2021/11/02 01:09:56;;;;;;;6.75;3.60;;;6.30;98.00;;;;;;6247457;23;20011;-77
2021/11/02 01:12:21;;;;;;;6.78;3.20;;;6.30;98.00;;;;;;6247650;23;20007;-77
2021/11/02 01:14:47;;;;;;;5.97;2.70;;;6.20;98.00;;;;;;6249567;23;20001;-78
2021/11/02 01:17:13;;;;;;;4.88;2.65;;;6.20;98.00;;;;;;6250795;23;20000;-76
2021/11/02 01:19:38;;;;;;;6.28;2.80;;;6.20;98.00;;;;;;6250115;23;20004;-77
2021/11/02 01:22:04;;;;;;;5.90;3.00;;;6.30;98.00;;;;;;6250080;23;20011;-77
2021/11/02 01:24:30;;;;;;;7.43;3.20;;;6.30;98.00;;;;;;6250488;23;20062;-77
2021/11/02 01:26:56;;;;;;;14.85;3.30;;;6.40;98.00;;;;;;6221985;23;20022;-78
2021/11/02 01:29:22;;;;;;;6.63;3.50;;;6.30;98.00;;;;;;6250293;23;20028;-77
2021/11/02 01:31:48;;;;;;;5.00;3.20;;;6.30;98.00;;;;;;6248717;23;20028;-77
2021/11/02 01:34:14;;;;;;;8.45;3.63;;;6.20;98.00;;;;;;6249648;23;20003;-78
2021/11/02 01:36:40;;;;;;;7.20;3.47;;;6.20;98.00;;;;;;6249906;23;20008;-78
2021/11/02 01:39:07;;;;;;;8.25;3.47;;;6.20;98.00;;;;;;6249629;23;20010;-78
2021/11/02 01:41:34;;;;;;;8.13;3.55;;;6.20;98.00;;;;;;6247880;23;20019;-78
2021/11/02 01:44:00;;;;;;;8.52;3.10;;;6.30;98.00;;;;;;6248732;23;20008;-77
2021/11/02 01:46:32;;;;;;;6.97;3.50;;;6.40;98.00;;;;;;6250092;23;20028;-77
2021/11/02 01:49:00;;;;;;;9.18;3.90;;;6.40;98.00;;;;;;6248894;23;20000;-78
2021/11/02 01:51:29;;;;;;;6.75;3.47;;;6.40;98.00;;;;;;6220807;23;20015;-78
2021/11/02 01:53:55;;;;;;;8.15;3.38;;;6.40;98.00;;;;;;6249312;23;20071;-78
2021/11/02 01:56:21;;;;;;;10.15;3.55;;;6.40;98.00;;;;;;6221259;23;20434;-77
2021/11/02 01:58:54;;;;;;;8.07;3.20;;;6.40;98.00;;;;;;6248241;23;20004;-79
2021/11/02 02:01:33;;;;;;;9.77;3.17;;;6.40;98.00;;;;;;6248355;23;20008;-77
2021/11/02 02:04:20;;;;;;;7.97;2.95;;;6.40;98.00;;;;;;6248581;23;20097;-78
2021/11/02 02:07:29;;;;;;;6.72;2.78;;;6.40;98.00;;;;;;6248533;23;20012;-78
2021/11/02 02:10:13;;;;;;;6.60;3.13;;;6.40;98.00;;;;;;6248589;23;20027;-77
2021/11/02 02:12:52;;;;;;;;;;;6.50;98.00;;;;;;6220736;23;20036;-78
2021/11/02 02:15:36;;;;;;;6.13;2.53;;;6.50;98.00;;;;;;6220225;23;19903;-77
2021/11/02 02:18:16;;;;;;;8.02;3.03;;;6.50;98.00;;;;;;6247557;23;20024;-78
2021/11/02 02:21:20;;;;;;;6.70;3.03;;;6.50;98.00;;;;;;6247356;23;20027;-78
2021/11/02 02:24:12;;;;;;;6.05;3.05;;;6.50;98.00;;;;;;6248473;23;20020;-77
2021/11/02 02:26:50;;;;;;;7.45;3.13;;;6.50;98.00;;;;;;6245549;23;20004;-77
2021/11/02 02:29:18;;;;;;;7.55;2.70;;;6.40;98.00;;;;;;6220929;23;20010;-77
2021/11/02 02:31:46;;;;;;;4.28;1.98;;;6.50;98.00;;;;;;6221528;23;19996;-80
2021/11/02 02:34:15;;;;;;;5.30;2.70;;;6.60;98.00;;;;;;6249022;23;20049;-79
2021/11/02 02:36:42;;;;;;;6.60;2.80;;;6.60;98.00;;;;;;6248108;23;20038;-78
2021/11/02 02:39:10;;;;;;;4.70;2.63;;;6.60;98.00;;;;;;6247916;23;20004;-79
2021/11/02 02:41:39;;;;;;;5.80;2.20;;;6.60;98.00;;;;;;6246322;23;20001;-79
2021/11/02 02:44:09;;;;;;;4.53;1.75;;;6.60;98.00;;;;;;6247620;23;20004;-78
2021/11/02 02:46:38;;;;;;;4.68;1.60;;;6.60;98.00;;;;;;6247369;23;19996;-77
2021/11/02 02:49:04;;;;;;;7.25;1.83;;;6.70;98.00;;;;;;6247991;23;19992;-78
2021/11/02 02:51:33;;;;;;;3.63;1.60;;;6.70;98.00;;;;;;6247397;23;20000;-79
2021/11/02 02:53:59;;;;;;;5.13;1.67;;;6.70;98.00;;;;;;6221099;23;20381;-79
2021/11/02 02:56:29;;;;;;;4.80;1.73;;;6.60;98.00;;;;;;6246702;23;20007;-78
2021/11/02 02:58:58;;;;;;;3.80;1.52;;;6.60;98.00;;;;;;6247080;23;20000;-80
2021/11/02 03:01:25;;;;;;;4.93;1.70;;;6.60;98.00;;;;;;6221155;23;20004;-78
2021/11/02 03:04:01;;;;;;;6.00;1.70;;;6.50;98.00;;;;;;6247712;23;20004;-80
2021/11/02 03:06:35;;;;;;;5.10;1.45;;;6.50;98.00;;;;;;6247171;23;20016;-79
2021/11/02 03:09:01;;;;;;;3.45;1.20;;;6.40;98.00;;;;;;6246809;23;20004;-78
2021/11/02 03:11:31;;;;;;;5.30;2.10;;;6.40;98.00;;;;;;6246520;23;19996;-78
2021/11/02 03:13:59;;;;;;;6.10;1.92;;;6.40;98.00;;;;;;6247733;23;20035;-78
2021/11/02 03:16:52;;;;;;;4.88;1.40;;;6.30;98.00;;;;;;6220077;23;20091;-79
2021/11/02 03:20:30;;;;;;;4.53;1.55;;;6.20;98.00;;;;;;6246187;23;20000;-78
2021/11/02 03:50:00;;;;;;;2.92;1.20;;;5.70;98.00;;;;;;6246826;23;20019;-77
2021/11/02 03:55:03;;;;;;;3.90;1.33;;;5.50;98.00;;;;;;6257595;23;20035;-77
2021/11/02 05:09:12;;;;;;;4.30;1.27;;;4.70;97.90;;;;;;6246314;23;20038;-76
2021/11/02 05:12:23;;;;;;;6.43;2.40;;;4.70;97.80;;;;;;6243927;23;20000;-76
2021/11/02 05:53:23;;;;;;;3.90;1.40;;;4.30;97.10;;;;;;6256926;23;20354;-79
2021/11/02 06:05:59;;;;;;;4.22;1.65;;;4.10;96.90;;;;;;6255985;23;20393;-78
2021/11/02 06:28:52;;;;;;;7.55;2.75;;;4.30;97.00;;;;;;6248332;23;20015;-78
2021/11/02 06:47:58;;;;;;;4.55;1.90;;;4.40;98.00;;;;;;6258032;23;20061;-77
2021/11/02 06:52:58;;;;;;;3.60;1.60;;;4.60;98.00;;;;;;6258767;23;20270;-78
2021/11/02 07:15:28;;;;;;;4.72;1.88;;;5.40;98.00;;;;;;6249900;23;20007;-78
2021/11/02 07:23:31;;;;;;;4.20;1.80;;;5.70;98.00;;;;;;6259718;23;20149;-78
2021/11/02 08:47:31;;;;;;;3.80;1.95;;;7.70;98.00;;;;;;6249032;23;20015;-80
2021/11/02 08:49:58;;;;;;;6.20;1.90;;;7.80;98.00;;;;;;6247839;23;20046;-77
2021/11/02 08:52:24;;;;;;;7.32;2.35;;;7.90;98.00;;;;;;6221275;23;20365;-77
2021/11/02 08:54:54;;;;;;;4.97;2.13;;;7.90;98.00;;;;;;6220956;23;20012;-78
2021/11/02 08:57:21;;;;;;;6.22;2.53;;;7.70;98.00;;;;;;6219705;23;20008;-78
2021/11/02 08:59:47;;;;;;;6.07;2.63;;;7.50;98.00;;;;;;6247858;23;20001;-79
2021/11/02 09:02:25;;;;;;;7.63;2.78;;;7.30;98.00;;;;;;6220655;23;20027;-79
2021/11/02 09:04:58;;;;;;;4.35;2.15;;;7.20;98.00;;;;;;6220938;23;20008;-79
2021/11/02 09:07:28;;;;;;;4.25;2.03;;;7.20;98.00;;;;;;6220093;23;20296;-79
2021/11/02 09:09:56;;;;;;;6.63;2.28;;;7.20;98.00;;;;;;6221808;23;20008;-79
2021/11/02 09:12:29;;;;;;;4.57;1.88;;;7.10;98.00;;;;;;6247521;23;20054;-79
2021/11/02 09:14:58;;;;;;;5.18;1.83;;;7.10;98.00;;;;;;6248592;23;20075;-78
2021/11/02 09:17:28;;;;;;;6.85;1.95;;;7.00;98.00;;;;;;6248358;23;20062;-78
2021/11/02 09:20:00;;;;;;;6.38;2.65;;;6.80;98.00;;;;;;6222184;23;20004;-78
2021/11/02 09:22:26;;;;;;;7.05;2.35;;;6.90;98.00;;;;;;6248651;23;20007;-80
2021/11/02 09:24:52;;;;;;;6.18;1.95;;;7.00;98.00;;;;;;6247695;23;20004;-80
2021/11/02 09:27:19;;;;;;;2.58;1.40;;;7.00;98.00;;;;;;6219533;23;20017;-80
2021/11/02 09:29:46;;;;;;;3.72;1.55;;;7.00;98.00;;;;;;6246968;23;20371;-78
2021/11/02 09:32:12;;;;;;;6.35;1.38;;;7.00;98.00;;;;;;6248755;23;20004;-79
2021/11/02 09:34:38;;;;;;;3.22;1.20;;;7.20;98.00;;;;;;6222699;23;20366;-79
2021/11/02 09:37:16;;;;;;;3.00;1.40;;;7.20;98.00;;;;;;6250626;23;20362;-79
2021/11/02 09:39:46;;;;;;;4.13;1.20;;;7.30;98.00;;;;;;6223971;23;20008;-78
2021/11/02 09:42:38;;;;;;;4.75;1.30;;;7.40;98.00;;;;;;6222184;23;20004;-78
2021/11/02 09:45:31;;;;;;;1.45;0.88;;;7.30;98.00;;;;;;6202321;23;20052;-78
2021/11/02 09:48:06;;;;;;;1.58;1.00;;;7.40;98.00;;;;;;6250348;23;20004;-78
2021/11/02 09:50:37;;;;;;;1.90;0.95;;;7.30;98.00;;;;;;6223803;23;20000;-78
2021/11/02 09:53:15;;;;;;;1.67;1.00;;;7.40;98.00;;;;;;6222179;23;20011;-77
2021/11/02 09:56:10;;;;;;;2.42;1.00;;;7.40;98.00;;;;;;6248164;23;19996;-77
2021/11/02 09:58:49;;;;;;;1.92;1.15;;;7.50;98.00;;;;;;6250196;23;20263;-77
2021/11/02 10:01:32;;;;;;;2.53;0.98;;;7.60;98.00;;;;;;6223429;23;20616;-78
2021/11/02 10:04:22;;;;;;;2.13;0.90;;;7.60;98.00;;;;;;6250213;23;20390;-77
2021/11/02 10:06:53;;;;;;;15.48;6.85;;;7.70;98.00;;;;;;6249942;23;20012;-78
2021/11/02 10:10:02;;;;;;;1.90;1.17;;;7.60;98.00;;;;;;6249303;23;20064;-78
2021/11/02 10:12:56;;;;;;;2.30;1.00;;;7.60;98.00;;;;;;6216613;23;20358;-77
2021/11/02 10:15:27;;;;;;;1.35;0.90;;;7.60;98.00;;;;;;6249783;23;19997;-77
2021/11/02 10:17:57;;;;;;;2.05;0.90;;;7.60;98.00;;;;;;6250217;23;20023;-77
2021/11/02 10:20:48;;;;;;;1.67;0.80;;;7.50;98.00;;;;;;6250155;23;20074;-77
2021/11/02 10:23:18;;;;;;;2.25;0.93;;;7.70;98.00;;;;;;6250494;23;20070;-76
2021/11/02 10:26:02;;;;;;;1.38;0.90;;;7.80;98.00;;;;;;6221957;23;20012;-76
2021/11/02 10:28:46;;;;;;;;;;;7.90;98.00;;;;;;6250964;23;19996;-76
2021/11/02 10:31:35;;;;;;;1.60;0.90;;;8.00;98.00;;;;;;6250506;23;19926;-76
2021/11/02 10:34:10;;;;;;;2.05;1.00;;;8.30;98.00;;;;;;6249946;23;20000;-76
2021/11/02 10:36:52;;;;;;;3.05;1.00;;;8.50;98.00;;;;;;6250299;23;20305;-76
2021/11/02 10:39:39;;;;;;;2.63;1.30;;;8.90;98.00;;;;;;6249917;23;20312;-77
2021/11/02 10:42:35;;;;;;;1.40;1.00;;;9.30;98.00;;;;;;6247623;23;20031;-76
2021/11/02 10:45:02;;;;;;;1.40;0.80;;;9.50;96.30;;;;;;6249905;23;20071;-77
2021/11/02 10:47:58;;;;;;;1.30;0.80;;;9.70;96.40;;;;;;6223522;23;20011;-77
2021/11/02 10:50:28;;;;;;;1.33;0.80;;;9.80;94.10;;;;;;6249502;23;20007;-77
2021/11/02 10:53:01;;;;;;;1.35;0.90;;;9.90;94.00;;;;;;6223529;23;20008;-76
2021/11/02 10:56:06;;;;;;;1.33;0.90;;;10.00;94.60;;;;;;6248396;23;20008;-77
2021/11/02 10:58:33;;;;;;;;;;;9.90;93.90;;;;;;6099220;23;20013;-76
2021/11/02 11:01:10;;;;;;;2.45;0.80;;;9.40;94.50;;;;;;6098191;23;20184;-77
2021/11/02 11:03:38;;;;;;;1.10;0.80;;;8.90;97.30;;;;;;6183061;23;20278;-77
2021/11/02 11:06:13;;;;;;;1.17;0.80;;;8.60;97.90;;;;;;6249253;23;20016;-77
2021/11/02 11:08:41;;;;;;;1.10;0.80;;;8.30;98.00;;;;;;6249544;23;20026;-77
2021/11/02 11:11:14;;;;;;;9.65;3.85;;;7.90;98.00;;;;;;6221767;23;20005;-77
2021/11/02 11:13:56;;;;;;;4.05;1.67;;;7.80;98.00;;;;;;6249662;23;20008;-79
2021/11/02 11:16:35;;;;;;;3.80;1.80;;;7.70;98.00;;;;;;6249235;23;20008;-78
2021/11/02 11:19:18;;;;;;;6.57;2.90;;;7.60;98.00;;;;;;6249291;23;20000;-79
2021/11/02 11:21:44;;;;;;;5.38;2.38;;;7.60;98.00;;;;;;6249253;23;20285;-78
2021/11/02 11:24:26;;;;;;;3.80;1.70;;;7.50;98.00;;;;;;6249336;23;20250;-79
2021/11/02 11:26:54;;;;;;;2.65;1.40;;;7.40;98.00;;;;;;6221621;23;20004;-79
2021/11/02 11:29:26;;;;;;;9.35;5.93;;;7.30;98.00;;;;;;6222508;23;20000;-79
2021/11/02 11:31:54;;;;;;;4.80;2.72;;;7.40;98.00;;;;;;6249140;23;20078;-79
2021/11/02 11:34:42;;;;;;;5.20;2.63;;;7.50;98.00;;;;;;6222710;23;20243;-79
2021/11/02 11:37:13;;;;;;;5.68;2.92;;;7.60;98.00;;;;;;6249346;23;20075;-78
2021/11/02 11:39:42;;;;;;;3.25;1.80;;;7.70;98.00;;;;;;6249452;23;20012;-78
2021/11/02 11:42:12;;;;;;;3.47;1.63;;;7.70;98.00;;;;;;6221206;23;20014;-78
2021/11/02 11:44:43;;;;;;;2.50;1.27;;;7.70;98.00;;;;;;6249266;23;20106;-78
2021/11/02 11:47:15;;;;;;;2.25;1.20;;;7.80;98.00;;;;;;6248463;23;20030;-77
2021/11/02 11:49:45;;;;;;;1.80;0.98;;;7.90;98.00;;;;;;6247852;23;20680;-78
2021/11/02 11:52:32;;;;;;;3.28;1.80;;;8.10;98.00;;;;;;6221870;23;20091;-78
2021/11/02 11:55:04;;;;;;;2.90;1.10;;;8.30;98.00;;;;;;6222394;23;20008;-78
2021/11/02 11:57:38;;;;;;;2.45;1.10;;;8.40;98.00;;;;;;6249210;23;20004;-78
2021/11/02 12:00:10;;;;;;;1.75;1.02;;;8.60;98.00;;;;;;6247122;23;20004;-77
2021/11/02 12:03:13;;;;;;;3.75;1.30;;;8.90;98.00;;;;;;6248698;23;20019;-77
2021/11/02 12:05:46;;;;;;;3.58;1.40;;;9.10;98.00;;;;;;6249230;23;20401;-78
2021/11/02 12:08:35;;;;;;;2.15;1.15;;;9.30;98.00;;;;;;6222815;23;20037;-77
2021/11/02 12:11:07;;;;;;;2.10;0.98;;;9.30;98.00;;;;;;6225313;23;20011;-78
2021/11/02 12:13:40;;;;;;;2.78;1.10;;;9.20;98.00;;;;;;6249200;23;19996;-77
2021/11/02 12:16:16;;;;;;;3.27;1.40;;;9.20;98.00;;;;;;6249448;23;20008;-77
2021/11/02 12:18:44;;;;;;;2.58;1.20;;;9.10;98.00;;;;;;6222169;23;20282;-78
2021/11/02 12:21:20;;;;;;;2.53;1.20;;;9.10;98.00;;;;;;6249043;23;20396;-76
2021/11/02 12:23:51;;;;;;;2.53;1.00;;;9.40;98.00;;;;;;6248705;23;20028;-77
2021/11/02 12:26:37;;;;;;;2.47;1.10;;;9.80;98.00;;;;;;6220491;23;20423;-77
2021/11/02 12:29:09;;;;;;;4.03;1.40;;;10.00;98.00;;;;;;6248982;23;20027;-77
2021/11/02 12:31:37;;;;;;;5.63;2.85;;;10.60;96.30;;;;;;6222387;23;20004;-78
2021/11/02 12:34:15;;;;;;;1.75;0.90;;;10.80;95.20;;;;;;6222456;23;20061;-77
2021/11/02 12:36:51;;;;;;;2.38;0.90;;;10.30;95.20;;;;;;6248948;23;20067;-78
2021/11/02 12:39:32;;;;;;;1.73;0.90;;;10.30;96.20;;;;;;6197873;23;20011;-78
2021/11/02 12:42:02;;;;;;;2.60;1.30;;;10.40;95.50;;;;;;6247678;23;20001;-77
2021/11/02 12:44:31;;;;;;;1.80;0.93;;;10.10;96.00;;;;;;6248406;23;20004;-77
2021/11/02 12:46:59;;;;;;;6.78;3.40;;;9.90;96.10;;;;;;6222216;23;20083;-77
2021/11/02 12:49:55;;;;;;;4.38;2.10;;;10.10;96.20;;;;;;6197122;23;20008;-76
2021/11/02 12:52:27;;;;;;;3.25;1.42;;;10.10;95.00;;;;;;6225499;23;20010;-76
2021/11/02 12:55:00;;;;;;;3.10;1.10;;;10.30;93.70;;;;;;6248785;23;20071;-76
2021/11/02 12:57:37;;;;;;;2.00;0.90;;;9.80;93.90;;;;;;6247661;23;20011;-76
2021/11/02 13:00:08;;;;;;;2.63;1.40;;;9.70;96.70;;;;;;6223108;23;20008;-76
2021/11/02 13:02:42;;;;;;;2.00;0.93;;;10.10;94.00;;;;;;6248767;23;20010;-77
2021/11/02 13:05:17;;;;;;;3.33;1.08;;;10.30;93.20;;;;;;6222913;23;20022;-76
2021/11/02 13:07:44;;;;;;;2.75;1.20;;;10.60;92.50;;;;;;6248800;23;20353;-77
2021/11/02 13:10:17;;;;;;;2.13;1.05;;;10.70;91.70;;;;;;6247334;23;20027;-76
2021/11/02 13:12:47;;;;;;;2.88;1.30;;;10.60;89.50;;;;;;6248005;23;20004;-76
2021/11/02 13:15:13;;;;;;;1.73;0.70;;;10.40;90.90;;;;;;6221843;23;20024;-76
2021/11/02 13:17:44;;;;;;;1.88;0.80;;;10.30;89.70;;;;;;6222096;23;20008;-76
2021/11/02 13:20:12;;;;;;;1.23;0.82;;;10.30;91.50;;;;;;6249047;23;20004;-76
2021/11/02 13:22:48;;;;;;;1.85;0.80;;;10.60;90.70;;;;;;6248459;23;20012;-76
2021/11/02 13:25:22;;;;;;;1.33;0.75;;;10.90;89.80;;;;;;6247238;23;20079;-76
2021/11/02 13:27:54;;;;;;;;;;;11.00;88.40;;;;;;6249505;23;20008;-77
2021/11/02 13:30:29;;;;;;;1.08;0.77;;;10.90;86.90;;;;;;6222187;23;19906;-77
2021/11/02 13:33:03;;;;;;;1.67;0.70;;;10.50;87.20;;;;;;6221961;23;20055;-76
2021/11/02 13:35:45;;;;;;;0.95;0.73;;;10.40;87.40;;;;;;6222588;23;20001;-76
2021/11/02 13:38:25;;;;;;;1.67;0.80;;;10.60;87.40;;;;;;6222127;23;20000;-76
2021/11/02 13:40:53;;;;;;;4.18;0.80;;;10.40;86.50;;;;;;6246693;23;20072;-76
2021/11/02 13:43:30;;;;;;;3.85;1.20;;;10.30;87.20;;;;;;6222156;23;20004;-77
2021/11/02 13:45:56;;;;;;;2.35;0.90;;;10.40;87.20;;;;;;6222167;23;20009;-76
2021/11/02 13:48:22;;;;;;;2.03;0.80;;;10.70;88.90;;;;;;6222107;23;20000;-76
2021/11/02 13:50:49;;;;;;;0.98;0.77;;;10.60;86.10;;;;;;6248728;23;20312;-77
2021/11/02 13:53:15;;;;;;;5.57;0.70;;;10.40;87.40;;;;;;6248177;23;20004;-77
2021/11/02 13:55:41;;;;;;;1.02;0.70;;;10.30;87.90;;;;;;6245472;23;19996;-76
2021/11/02 13:58:06;;;;;;;3.13;1.10;;;10.00;88.00;;;;;;6248546;23;20066;-77
2021/11/02 14:00:34;;;;;;;2.45;0.80;;;10.00;89.10;;;;;;6248091;23;20004;-76
2021/11/02 14:03:10;;;;;;;3.13;0.90;;;10.10;87.50;;;;;;6248739;23;20019;-76
2021/11/02 14:05:39;;;;;;;4.85;1.20;;;10.40;89.40;;;;;;6248677;23;20095;-76
2021/11/02 14:08:07;;;;;;;3.47;1.30;;;10.50;89.50;;;;;;6248414;23;20075;-76
2021/11/02 14:10:35;;;;;;;3.10;1.20;;;10.40;87.70;;;;;;6247096;23;20007;-77
2021/11/02 14:13:01;;;;;;;10.20;4.07;;;10.20;87.70;;;;;;6248524;23;19996;-76
2021/11/02 14:15:29;;;;;;;3.00;1.13;;;9.90;89.70;;;;;;6248738;23;19997;-76
2021/11/02 14:17:58;;;;;;;6.90;1.98;;;9.70;89.60;;;;;;6249843;23;20103;-76
2021/11/02 14:20:32;;;;;;;3.50;1.23;;;9.40;91.30;;;;;;6249883;23;20004;-77
2021/11/02 14:23:02;;;;;;;4.95;1.50;;;9.40;92.00;;;;;;6250345;23;20266;-78
2021/11/02 14:25:38;;;;;;;3.63;1.30;;;9.30;91.60;;;;;;6248955;23;20004;-78
2021/11/02 14:28:05;;;;;;;2.33;1.13;;;9.40;92.20;;;;;;6250035;23;20004;-78
2021/11/02 14:30:31;;;;;;;3.00;1.13;;;9.50;90.90;;;;;;6223786;23;20087;-78
2021/11/02 14:33:00;;;;;;;1.00;0.80;;;9.40;90.10;;;;;;6250079;23;20024;-77
2021/11/02 14:35:38;;;;;;;1.92;0.70;;;9.40;89.60;;;;;;6223825;23;20000;-78
2021/11/02 14:38:13;;;;;;;1.80;1.08;;;9.30;89.80;;;;;;6223060;23;20015;-78
2021/11/02 14:40:50;;;;;;;2.63;1.30;;;9.20;89.70;;;;;;6222133;23;20011;-78
2021/11/02 14:43:17;;;;;;;1.88;1.00;;;9.00;90.60;;;;;;6250386;23;20004;-79
2021/11/02 14:45:53;;;;;;;1.65;1.00;;;8.80;90.40;;;;;;6250207;23;20462;-78
2021/11/02 14:48:49;;;;;;;2.08;0.90;;;8.80;91.60;;;;;;6222506;23;20058;-78
2021/11/02 14:51:21;;;;;;;1.92;0.90;;;8.70;91.70;;;;;;6248853;23;20004;-79
2021/11/02 14:53:49;;;;;;;0.93;0.70;;;8.50;92.10;;;;;;6221347;23;20094;-78
2021/11/02 14:56:18;;;;;;;2.28;1.00;;;8.40;92.70;;;;;;6247848;23;20007;-77
2021/11/02 14:59:02;;;;;;;3.13;1.10;;;8.50;92.50;;;;;;6249216;23;20262;-76
2021/11/02 15:01:50;;;;;;;4.82;2.50;;;8.50;93.00;;;;;;6248691;23;20003;-76
2021/11/02 15:04:18;;;;;;;3.83;1.83;;;8.60;92.90;;;;;;6221955;23;20008;-77
2021/11/02 15:06:57;;;;;;;4.93;2.17;;;8.50;92.00;;;;;;6248742;23;20027;-76
2021/11/02 15:09:35;;;;;;;5.68;1.30;;;8.40;92.60;;;;;;6221881;23;20007;-77
2021/11/02 15:12:04;;;;;;;8.00;4.57;;;8.40;93.60;;;;;;6246640;23;20281;-78
2021/11/02 15:14:35;;;;;;;6.35;2.70;;;8.20;94.70;;;;;;6248592;23;20000;-78
2021/11/02 15:17:05;;;;;;;3.40;1.80;;;8.20;94.50;;;;;;6248787;23;20312;-78
2021/11/02 15:19:34;;;;;;;2.83;1.20;;;8.20;94.80;;;;;;6248455;23;20282;-79
2021/11/02 15:22:05;;;;;;;3.53;1.80;;;8.20;93.90;;;;;;6222328;23;20004;-77
2021/11/02 15:24:33;;;;;;;4.78;1.60;;;8.40;94.20;;;;;;6249177;23;20057;-78
2021/11/02 15:27:09;;;;;;;2.35;1.20;;;8.50;93.70;;;;;;6247596;23;20004;-77
2021/11/02 15:29:38;;;;;;;1.52;0.88;;;8.50;93.40;;;;;;6248699;23;20002;-78
2021/11/02 15:32:15;;;;;;;2.00;1.10;;;8.40;93.80;;;;;;6249158;23;20515;-77
2021/11/02 15:34:57;;;;;;;5.70;2.17;;;8.30;93.40;;;;;;6221654;23;20008;-77
2021/11/02 15:37:28;;;;;;;4.88;1.90;;;8.10;94.20;;;;;;6248495;23;20004;-78
2021/11/02 15:40:03;;;;;;;6.57;3.70;;;8.00;94.70;;;;;;6221792;23;20062;-76
2021/11/02 15:42:40;;;;;;;5.57;2.80;;;7.90;95.10;;;;;;6247334;23;20270;-76
2021/11/02 15:45:11;;;;;;;5.20;2.55;;;7.90;95.00;;;;;;6221789;23;20319;-75
2021/11/02 15:47:48;;;;;;;8.27;3.97;;;7.90;95.30;;;;;;6246491;23;20305;-76
2021/11/02 15:50:20;;;;;;;9.63;3.88;;;7.90;95.00;;;;;;6246606;23;20031;-76
2021/11/02 15:52:49;;;;;;;8.40;4.50;;;7.90;94.50;;;;;;6247322;23;20000;-76
2021/11/02 15:55:21;;;;;;;7.22;3.00;;;7.90;94.70;;;;;;6245735;23;20277;-77
2021/11/02 15:57:53;;;;;;;3.67;1.50;;;7.80;94.30;;;;;;6247726;23;20007;-76
2021/11/02 16:00:29;;;;;;;2.80;1.27;;;7.70;94.40;;;;;;6246958;23;20004;-76
2021/11/02 16:02:56;;;;;;;2.42;1.00;;;7.70;94.40;;;;;;6248590;23;20032;-76
2021/11/02 16:05:28;;;;;;;3.33;1.58;;;7.60;94.40;;;;;;6222328;23;20000;-76
2021/11/02 16:07:56;;;;;;;2.47;1.17;;;7.50;94.80;;;;;;6248021;23;20050;-76
2021/11/02 16:10:28;;;;;;;3.47;1.70;;;7.40;94.80;;;;;;6245583;23;20283;-76
2021/11/02 16:12:54;;;;;;;3.13;1.48;;;7.30;95.20;;;;;;6222376;23;20008;-76
2021/11/02 16:15:23;;;;;;;4.78;1.83;;;7.10;95.70;;;;;;6245835;23;20062;-75
2021/11/02 16:17:54;;;;;;;5.45;1.80;;;7.00;95.90;;;;;;6246840;23;20007;-76
2021/11/02 16:20:27;;;;;;;7.45;3.25;;;7.10;95.50;;;;;;6246237;23;20378;-77
2021/11/02 16:23:17;;;;;;;3.35;1.40;;;7.20;95.50;;;;;;6219788;23;20004;-75
2021/11/02 16:25:51;;;;;;;4.97;1.50;;;7.20;95.40;;;;;;6220482;23;20039;-76
2021/11/02 16:28:28;;;;;;;5.68;1.88;;;7.10;95.90;;;;;;6248375;23;20000;-76
2021/11/02 16:30:57;;;;;;;2.28;1.20;;;7.00;96.10;;;;;;6247684;23;20370;-76
2021/11/02 16:33:45;;;;;;;2.35;1.30;;;6.90;96.70;;;;;;6247704;23;20039;-76
2021/11/02 16:36:24;;;;;;;3.20;1.58;;;6.90;96.90;;;;;;6248125;23;20004;-76
2021/11/02 16:38:52;;;;;;;1.48;1.00;;;6.80;97.20;;;;;;6248426;23;20004;-76
2021/11/02 16:41:28;;;;;;;2.08;0.93;;;6.80;97.10;;;;;;6216786;23;20282;-76
2021/11/02 16:44:07;;;;;;;2.55;1.65;;;6.80;96.90;;;;;;6218812;23;20004;-76
2021/11/02 16:46:36;;;;;;;2.88;1.40;;;6.80;96.80;;;;;;6248730;23;20085;-76
2021/11/02 16:49:07;;;;;;;3.63;0.90;;;6.80;96.80;;;;;;6222526;23;20051;-77
2021/11/02 16:52:04;;;;;;;4.97;2.10;;;6.80;96.40;;;;;;6248963;23;20071;-76
2021/11/02 16:54:36;;;;;;;2.53;1.30;;;6.70;96.60;;;;;;6248936;23;20002;-76
2021/11/02 16:57:08;;;;;;;1.60;0.90;;;6.70;96.60;;;;;;6245384;23;20087;-76
2021/11/02 16:59:40;;;;;;;54.38;28.77;;;6.80;96.00;;;;;;6246577;23;20008;-76
2021/11/02 17:02:38;;;;;;;2.38;1.20;;;6.70;96.20;;;;;;6248809;23;20004;-76
2021/11/02 17:05:17;;;;;;;2.28;1.10;;;6.80;96.40;;;;;;6238598;23;20004;-76
2021/11/02 17:07:46;;;;;;;7.95;3.97;;;6.90;95.90;;;;;;6221777;23;20012;-76
2021/11/02 17:10:26;;;;;;;4.78;1.73;;;7.00;95.20;;;;;;6247469;23;20000;-76
2021/11/02 17:12:57;;;;;;;12.85;6.45;;;7.10;95.00;;;;;;6248848;23;19993;-76
2021/11/02 17:15:30;;;;;;;3.90;2.28;;;7.30;93.70;;;;;;6221935;23;20011;-76
2021/11/02 17:17:58;;;;;;;2.90;1.70;;;7.40;93.60;;;;;;6222179;23;20031;-76
2021/11/02 17:20:25;;;;;;;1.90;1.00;;;7.40;93.30;;;;;;6221861;23;20362;-76
2021/11/02 17:22:51;;;;;;;1.73;0.85;;;7.40;93.20;;;;;;6221725;23;20000;-76
2021/11/02 17:25:19;;;;;;;1.88;0.80;;;7.40;93.20;;;;;;6247269;23;20091;-76
2021/11/02 17:27:46;;;;;;;1.17;0.80;;;7.50;93.10;;;;;;6248320;23;20008;-76
2021/11/02 17:30:24;;;;;;;3.35;0.98;;;7.50;93.20;;;;;;6248400;23;19997;-76
2021/11/02 17:32:52;;;;;;;1.67;0.95;;;7.50;93.40;;;;;;6248305;23;20000;-76
2021/11/02 17:35:18;;;;;;;1.35;0.80;;;7.50;93.40;;;;;;6248548;23;19996;-76
2021/11/02 17:37:50;;;;;;;1.42;0.80;;;7.50;93.40;;;;;;6248423;23;20004;-76
2021/11/02 17:40:17;;;;;;;1.67;0.90;;;7.50;93.00;;;;;;6247216;23;20004;-76
2021/11/02 17:42:49;;;;;;;1.38;0.88;;;7.60;92.80;;;;;;6247958;23;20000;-77
2021/11/02 17:45:15;;;;;;;2.03;0.90;;;7.60;93.00;;;;;;6248649;23;20000;-76
2021/11/02 17:47:46;;;;;;;5.80;2.70;;;7.60;92.90;;;;;;6248355;23;20004;-76
2021/11/02 17:50:15;;;;;;;3.50;1.58;;;7.60;92.80;;;;;;6247954;23;19996;-76
2021/11/02 17:52:42;;;;;;;1.45;0.80;;;7.60;93.30;;;;;;6249551;23;19996;-76
2021/11/02 17:55:10;;;;;;;1.92;0.90;;;7.50;93.30;;;;;;6248866;23;20003;-77
2021/11/02 17:57:47;;;;;;;2.78;1.13;;;7.60;92.90;;;;;;6250334;23;20374;-76
2021/11/02 18:00:18;;;;;;;5.30;2.00;;;7.60;92.90;;;;;;6223076;23;20019;-76
2021/11/02 18:02:48;;;;;;;11.80;7.10;;;7.60;92.70;;;;;;6250737;23;20000;-76
2021/11/02 18:05:14;;;;;;;1.73;0.93;;;7.70;92.90;;;;;;6223594;23;20095;-76
2021/11/02 18:07:40;;;;;;;1.55;0.90;;;7.60;92.70;;;;;;6249913;23;20008;-76
2021/11/02 18:10:07;;;;;;;1.80;0.90;;;7.60;92.50;;;;;;6222526;23;20457;-77
2021/11/02 18:12:34;;;;;;;1.08;0.80;;;7.70;92.10;;;;;;6250245;23;20003;-76
2021/11/02 18:15:03;;;;;;;1.63;0.95;;;7.70;91.70;;;;;;6249922;23;20000;-76
2021/11/02 18:17:31;;;;;;;1.58;0.90;;;7.70;92.00;;;;;;6250191;23;20018;-76
2021/11/02 18:20:00;;;;;;;2.47;1.33;;;7.70;92.40;;;;;;6249922;23;20079;-76
2021/11/02 18:22:26;;;;;;;4.68;1.23;;;7.60;92.30;;;;;;6223431;23;20016;-76